Taiyoumaru No.8 — JD2246 — position and weather

sailwx.info

Track history (hours):
 
Tides and Currents Weather Stations Pressure Air Temp Water Temp Dewpoint Dewpoint Depression Visibility Wind Speed Wind Dir Waves Ship Positions

Taiyoumaru No.8

Last reported at 2017-Sep-25 04:27 UTC. Time now 2017-Oct-19 14:12 UTC.
Position N 34°57' E 139°29'.
Warning: this ship's position is 24 days out of date.

Length 70 m; draft 4.3 m.

Type: Cargo ship. MMSI: 431402047.

Date/timePositionNaut miles runAvg speedWind from/ knotsBaromVisibWave heightAir tempDewpointWater temp
2017-Sep-25 04:27N 34°57' E 139°29'510.5
2017-Sep-25 04:00N 35°00' E 139°34'611.3
2017-Sep-25 03:30N 35°04' E 139°39'612.0
2017-Sep-25 03:00N 35°09' E 139°44'611.9
2017-Sep-25 02:30N 35°14' E 139°46'611.8
2017-Sep-25 02:00N 35°19' E 139°43'611.2
2017-Sep-25 01:31N 35°25' E 139°42'3 6.8
2017-Sep-25 01:01N 35°28' E 139°40'0 0.0
2017-Sep-25 00:31N 35°28' E 139°40'0 0.0
2017-Sep-25 00:00N 35°28' E 139°40'0 0.0
2017-Sep-24 23:31N 35°28' E 139°40'0 0.0
2017-Sep-24 23:01N 35°28' E 139°40'0 0.0
2017-Sep-24 22:31N 35°28' E 139°40'0 0.0
2017-Sep-24 22:01N 35°28' E 139°40'0 0.0
2017-Sep-24 21:30N 35°28' E 139°40'0 0.0
2017-Sep-24 21:01N 35°28' E 139°40'0 0.0
2017-Sep-24 20:30N 35°28' E 139°40'0 0.0
2017-Sep-24 20:00N 35°28' E 139°40'0 0.0
2017-Sep-24 19:31N 35°28' E 139°40'0 0.0
2017-Sep-24 19:01N 35°28' E 139°40'0 0.0
2017-Sep-24 18:30N 35°28' E 139°40'0 0.0
2017-Sep-24 18:00N 35°28' E 139°40'0 0.0
2017-Sep-24 17:30N 35°28' E 139°40'0 0.0
2017-Sep-24 17:01N 35°28' E 139°40'0 0.0
2017-Sep-24 16:30N 35°28' E 139°40'0 0.0
2017-Sep-24 16:00N 35°28' E 139°40'0 0.0
2017-Sep-24 15:31N 35°28' E 139°40'0 0.0
2017-Sep-24 15:01N 35°28' E 139°40'0 0.0
2017-Sep-24 14:31N 35°28' E 139°40'0 0.0
2017-Sep-24 14:01N 35°28' E 139°40'0 0.0
2017-Sep-24 13:30N 35°28' E 139°40'0 0.0
2017-Sep-24 13:00N 35°28' E 139°40'0 0.0
2017-Sep-24 12:30N 35°28' E 139°40'0 0.0
2017-Sep-24 12:00N 35°28' E 139°40'0 0.0
2017-Sep-24 11:31N 35°28' E 139°40'0 0.0
2017-Sep-24 11:00N 35°28' E 139°40'0 0.0
2017-Sep-24 10:30N 35°28' E 139°40'0 0.0
2017-Sep-24 10:01N 35°28' E 139°40'0 0.0
2017-Sep-24 09:31N 35°28' E 139°40'0 0.0
2017-Sep-24 09:00N 35°28' E 139°40'0 0.0
2017-Sep-24 08:30N 35°28' E 139°40'0 0.0
2017-Sep-24 08:01N 35°28' E 139°40'0 0.0
2017-Sep-24 07:30N 35°28' E 139°40'0 0.0
2017-Sep-24 07:01N 35°28' E 139°40'0 0.0
2017-Sep-24 06:30N 35°28' E 139°40'0 0.0
2017-Sep-24 06:01N 35°28' E 139°40'0 0.0
2017-Sep-24 05:31N 35°28' E 139°40'0 0.0
2017-Sep-24 05:00N 35°28' E 139°40'0 0.0
2017-Sep-24 04:31N 35°28' E 139°40'0 0.0
2017-Sep-24 04:01N 35°28' E 139°40'0 0.0
2017-Sep-24 03:31N 35°28' E 139°40'0 0.0
2017-Sep-24 03:01N 35°28' E 139°40'0 0.0
2017-Sep-24 02:31N 35°28' E 139°40'0 0.0
2017-Sep-24 02:00N 35°28' E 139°40'0 0.0
2017-Sep-24 01:31N 35°28' E 139°40'0 0.0
2017-Sep-24 01:00N 35°28' E 139°40'0 0.0
2017-Sep-24 00:30N 35°28' E 139°40'0 0.1
2017-Sep-24 00:00N 35°28' E 139°40'2 4.0
2017-Sep-23 23:31N 35°27' E 139°42'0 0.0
2017-Sep-23 23:01N 35°27' E 139°42'0 0.0
2017-Sep-23 22:31N 35°27' E 139°42'0 0.0
2017-Sep-23 22:01N 35°27' E 139°42'4 8.0
2017-Sep-23 21:31N 35°23' E 139°43'510.4
2017-Sep-23 21:00N 35°18' E 139°45'510.4
2017-Sep-23 20:30N 35°13' E 139°47'510.6
2017-Sep-23 20:00N 35°07' E 139°46'  
Track history (hours):
 
Tides and Currents Weather Stations Pressure Air Temp Water Temp Dewpoint Dewpoint Depression Visibility Wind Speed Wind Dir Waves Ship Positions

Taiyoumaru No.8

Last reported at 2017-Sep-25 04:27 UTC. Time now 2017-Oct-19 14:12 UTC.
Position N 34°57' E 139°29'.
Warning: this ship's position is 24 days out of date.

Length 70 m; draft 4.3 m.

Type: Cargo ship. MMSI: 431402047.

Date/timePositionNaut miles runAvg speedWind from/ knotsBaromVisibWave heightAir tempDewpointWater temp
2017-Sep-25 04:27N 34°57' E 139°29'510.5
2017-Sep-25 04:00N 35°00' E 139°34'611.3
2017-Sep-25 03:30N 35°04' E 139°39'612.0
2017-Sep-25 03:00N 35°09' E 139°44'611.9
2017-Sep-25 02:30N 35°14' E 139°46'611.8
2017-Sep-25 02:00N 35°19' E 139°43'611.2
2017-Sep-25 01:31N 35°25' E 139°42'3 6.8
2017-Sep-25 01:01N 35°28' E 139°40'0 0.0
2017-Sep-25 00:31N 35°28' E 139°40'0 0.0
2017-Sep-25 00:00N 35°28' E 139°40'0 0.0
2017-Sep-24 23:31N 35°28' E 139°40'0 0.0
2017-Sep-24 23:01N 35°28' E 139°40'0 0.0
2017-Sep-24 22:31N 35°28' E 139°40'0 0.0
2017-Sep-24 22:01N 35°28' E 139°40'0 0.0
2017-Sep-24 21:30N 35°28' E 139°40'0 0.0
2017-Sep-24 21:01N 35°28' E 139°40'0 0.0
2017-Sep-24 20:30N 35°28' E 139°40'0 0.0
2017-Sep-24 20:00N 35°28' E 139°40'0 0.0
2017-Sep-24 19:31N 35°28' E 139°40'0 0.0
2017-Sep-24 19:01N 35°28' E 139°40'0 0.0
2017-Sep-24 18:30N 35°28' E 139°40'0 0.0
2017-Sep-24 18:00N 35°28' E 139°40'0 0.0
2017-Sep-24 17:30N 35°28' E 139°40'0 0.0
2017-Sep-24 17:01N 35°28' E 139°40'0 0.0
2017-Sep-24 16:30N 35°28' E 139°40'0 0.0
2017-Sep-24 16:00N 35°28' E 139°40'0 0.0
2017-Sep-24 15:31N 35°28' E 139°40'0 0.0
2017-Sep-24 15:01N 35°28' E 139°40'0 0.0
2017-Sep-24 14:31N 35°28' E 139°40'0 0.0
2017-Sep-24 14:01N 35°28' E 139°40'0 0.0
2017-Sep-24 13:30N 35°28' E 139°40'0 0.0
2017-Sep-24 13:00N 35°28' E 139°40'0 0.0
2017-Sep-24 12:30N 35°28' E 139°40'0 0.0
2017-Sep-24 12:00N 35°28' E 139°40'0 0.0
2017-Sep-24 11:31N 35°28' E 139°40'0 0.0
2017-Sep-24 11:00N 35°28' E 139°40'0 0.0
2017-Sep-24 10:30N 35°28' E 139°40'0 0.0
2017-Sep-24 10:01N 35°28' E 139°40'0 0.0
2017-Sep-24 09:31N 35°28' E 139°40'0 0.0
2017-Sep-24 09:00N 35°28' E 139°40'0 0.0
2017-Sep-24 08:30N 35°28' E 139°40'0 0.0
2017-Sep-24 08:01N 35°28' E 139°40'0 0.0
2017-Sep-24 07:30N 35°28' E 139°40'0 0.0
2017-Sep-24 07:01N 35°28' E 139°40'0 0.0
2017-Sep-24 06:30N 35°28' E 139°40'0 0.0
2017-Sep-24 06:01N 35°28' E 139°40'0 0.0
2017-Sep-24 05:31N 35°28' E 139°40'0 0.0
2017-Sep-24 05:00N 35°28' E 139°40'0 0.0
2017-Sep-24 04:31N 35°28' E 139°40'0 0.0
2017-Sep-24 04:01N 35°28' E 139°40'0 0.0
2017-Sep-24 03:31N 35°28' E 139°40'0 0.0
2017-Sep-24 03:01N 35°28' E 139°40'0 0.0
2017-Sep-24 02:31N 35°28' E 139°40'0 0.0
2017-Sep-24 02:00N 35°28' E 139°40'0 0.0
2017-Sep-24 01:31N 35°28' E 139°40'0 0.0
2017-Sep-24 01:00N 35°28' E 139°40'0 0.0
2017-Sep-24 00:30N 35°28' E 139°40'0 0.1
2017-Sep-24 00:00N 35°28' E 139°40'2 4.0
2017-Sep-23 23:31N 35°27' E 139°42'0 0.0
2017-Sep-23 23:01N 35°27' E 139°42'0 0.0
2017-Sep-23 22:31N 35°27' E 139°42'0 0.0
2017-Sep-23 22:01N 35°27' E 139°42'4 8.0
2017-Sep-23 21:31N 35°23' E 139°43'510.4
2017-Sep-23 21:00N 35°18' E 139°45'510.4
2017-Sep-23 20:30N 35°13' E 139°47'510.6
2017-Sep-23 20:00N 35°07' E 139°46'  

Dump ship's entire track history